Time;durP1;ratioP1;P1;durP2;ratioP2;P2;SDS_P1;SDS_P2;PMS_P1;PMS_P2;Temp;Humidity;BMP_temperature;BMP_pressure;BME280_temperature;BME280_humidity;BME280_pressure;Samples;Min_cycle;Max_cycle;Signal;HPM_P1;HPM_P2
2022/09/27 00:00:51;;;;;;;1.98;1.88;;;9.00;99.90;;;;;;6194147;23;20031;-91
2022/09/27 00:03:26;;;;;;;2.45;2.05;;;9.20;99.90;;;;;;6178957;23;20065;-91
2022/09/27 00:06:35;;;;;;;4.53;2.67;;;9.10;99.90;;;;;;6130855;23;20013;-91
2022/09/27 00:09:10;;;;;;;2.50;2.08;;;9.10;99.90;;;;;;6109641;23;20028;-89
2022/09/27 00:11:41;;;;;;;2.67;2.45;;;9.20;99.90;;;;;;6181561;23;20041;-90
2022/09/27 00:14:12;;;;;;;2.63;2.13;;;9.10;99.90;;;;;;6143626;23;20117;-90
2022/09/27 00:16:45;;;;;;;4.05;3.10;;;9.10;99.90;;;;;;6133496;23;20017;-88
2022/09/27 00:19:24;;;;;;;5.03;2.85;;;9.10;99.90;;;;;;6156632;23;20021;-90
2022/09/27 00:22:00;;;;;;;2.72;2.45;;;9.10;99.90;;;;;;6132681;23;20021;-90
2022/09/27 00:24:30;;;;;;;6.07;2.63;;;9.00;99.90;;;;;;6161483;23;20181;-88
2022/09/27 00:27:00;;;;;;;4.80;2.03;;;9.00;99.90;;;;;;6130790;23;20040;-89
2022/09/27 00:29:36;;;;;;;3.08;2.80;;;8.90;99.90;;;;;;6131717;23;20024;-90
2022/09/27 00:32:05;;;;;;;2.70;2.50;;;9.00;99.90;;;;;;6142863;23;20024;-90
2022/09/27 00:34:39;;;;;;;3.53;2.75;;;9.00;99.90;;;;;;6201239;23;20024;-91
2022/09/27 00:37:16;;;;;;;4.07;3.28;;;9.00;99.90;;;;;;6193322;23;20016;-91
2022/09/27 00:39:47;;;;;;;3.08;2.10;;;9.00;99.90;;;;;;6203755;22;20016;-90
2022/09/27 00:42:19;;;;;;;3.75;2.92;;;9.00;99.90;;;;;;6241385;22;20020;-90
2022/09/27 00:44:59;;;;;;;6.72;2.58;;;9.00;99.90;;;;;;6217561;23;20031;-89
2022/09/27 00:47:36;;;;;;;2.95;2.35;;;9.00;99.90;;;;;;6193027;23;20035;-89
2022/09/27 00:50:04;;;;;;;2.70;1.83;;;9.00;99.90;;;;;;6248863;22;20023;-89
2022/09/27 00:52:41;;;;;;;2.38;2.13;;;9.00;99.90;;;;;;6226559;23;20016;-88
2022/09/27 00:55:19;;;;;;;2.53;2.33;;;9.10;99.90;;;;;;6245753;23;20632;-89
2022/09/27 00:57:48;;;;;;;3.35;2.35;;;9.00;99.90;;;;;;6225745;22;20023;-90
2022/09/27 01:00:16;;;;;;;3.55;3.22;;;9.10;99.90;;;;;;6193618;23;20016;-89
2022/09/27 01:02:49;;;;;;;2.70;2.17;;;9.10;99.90;;;;;;6222663;23;20026;-89
2022/09/27 01:05:19;;;;;;;2.63;2.42;;;9.00;99.90;;;;;;6255778;23;20436;-87
2022/09/27 01:07:59;;;;;;;2.63;2.25;;;9.00;99.90;;;;;;6246241;23;20028;-88
2022/09/27 01:10:35;;;;;;;4.30;3.22;;;9.00;99.90;;;;;;6250910;23;20597;-87
2022/09/27 01:13:11;;;;;;;2.45;2.22;;;8.90;99.90;;;;;;6244388;23;20650;-87
2022/09/27 01:15:45;;;;;;;3.53;2.78;;;9.00;99.90;;;;;;6219837;22;20191;-87
2022/09/27 01:18:37;;;;;;;3.15;2.67;;;9.00;99.90;;;;;;6226317;23;20363;-87
2022/09/27 01:21:21;;;;;;;7.45;2.40;;;9.00;99.90;;;;;;6254788;23;20436;-86
2022/09/27 01:24:16;;;;;;;2.20;2.00;;;9.10;99.90;;;;;;6246055;22;20340;-85
2022/09/27 01:27:08;;;;;;;4.70;3.20;;;9.00;99.90;;;;;;6248787;23;20024;-84
2022/09/27 01:30:07;;;;;;;3.65;2.20;;;9.10;99.90;;;;;;6254095;22;20012;-85
2022/09/27 01:32:50;;;;;;;5.50;2.65;;;9.10;99.90;;;;;;6255757;23;20012;-84
2022/09/27 01:35:54;;;;;;;3.40;2.80;;;9.10;99.90;;;;;;6221711;23;20463;-84
2022/09/27 01:38:51;;;;;;;3.10;2.70;;;9.00;99.90;;;;;;6250502;22;20017;-83
2022/09/27 01:41:42;;;;;;;4.95;3.33;;;9.10;99.90;;;;;;6244617;23;20313;-83
2022/09/27 01:44:46;;;;;;;2.35;2.22;;;9.10;99.90;;;;;;6209643;23;20024;-83
2022/09/27 01:47:27;;;;;;;2.17;2.08;;;9.10;99.90;;;;;;6246634;23;20027;-83
2022/09/27 01:50:13;;;;;;;2.92;1.88;;;9.00;99.90;;;;;;6226589;22;20019;-83
2022/09/27 01:52:49;;;;;;;5.13;2.10;;;9.10;99.90;;;;;;6254582;23;20047;-83
2022/09/27 01:55:21;;;;;;;2.20;2.00;;;9.10;99.90;;;;;;6194237;23;20027;-83
2022/09/27 01:58:24;;;;;;;6.60;3.20;;;9.10;99.90;;;;;;6245000;22;20027;-83
2022/09/27 02:00:54;;;;;;;2.60;2.42;;;9.10;99.90;;;;;;6228649;23;20008;-83
2022/09/27 02:03:29;;;;;;;2.25;2.05;;;9.10;99.90;;;;;;6219329;23;20027;-83
2022/09/27 02:06:41;;;;;;;3.28;2.97;;;9.10;99.90;;;;;;6153338;23;20024;-83
2022/09/27 02:09:38;;;;;;;2.88;2.63;;;9.00;99.90;;;;;;6279613;22;20016;-83
2022/09/27 02:12:15;;;;;;;2.13;2.03;;;9.00;99.90;;;;;;6244432;23;20331;-83
2022/09/27 02:14:54;;;;;;;2.28;2.08;;;9.10;99.90;;;;;;6250615;22;20439;-83
2022/09/27 02:17:28;;;;;;;3.28;3.08;;;9.00;99.90;;;;;;6229975;23;20027;-83
2022/09/27 02:20:22;;;;;;;3.22;2.75;;;9.00;99.90;;;;;;6269146;22;20023;-84
2022/09/27 02:23:07;;;;;;;2.17;1.80;;;9.00;99.90;;;;;;6247448;23;20039;-84
2022/09/27 02:26:06;;;;;;;2.47;2.22;;;9.00;99.90;;;;;;6244071;22;20024;-83
2022/09/27 02:29:05;;;;;;;3.83;2.28;;;9.00;99.90;;;;;;6244657;22;20016;-83
2022/09/27 02:31:40;;;;;;;3.15;2.95;;;8.90;99.90;;;;;;6220780;23;20448;-85
2022/09/27 02:34:18;;;;;;;2.80;2.55;;;8.90;99.90;;;;;;6193799;23;20031;-84
2022/09/27 02:36:52;;;;;;;2.72;2.53;;;8.90;99.90;;;;;;6219038;23;20016;-85
2022/09/27 02:39:20;;;;;;;2.15;1.98;;;8.90;99.90;;;;;;6246316;23;20016;-85
2022/09/27 02:41:57;;;;;;;2.17;1.92;;;8.90;99.90;;;;;;6194693;23;20020;-85
2022/09/27 02:44:26;;;;;;;4.72;2.25;;;8.90;99.90;;;;;;6194474;23;20470;-85
2022/09/27 02:47:35;;;;;;;2.58;2.38;;;8.90;99.90;;;;;;6218706;23;20024;-87
2022/09/27 02:50:40;;;;;;;1.65;1.55;;;8.90;99.90;;;;;;6251550;23;20722;-85
2022/09/27 02:53:35;;;;;;;2.30;2.20;;;8.80;99.90;;;;;;6219179;23;20020;-86
2022/09/27 02:56:24;;;;;;;2.83;2.03;;;8.80;99.90;;;;;;6181866;23;20031;-85
2022/09/27 03:00:08;;;;;;;1.73;1.63;;;8.80;99.90;;;;;;6244311;23;20661;-85
2022/09/27 03:02:53;;;;;;;1.55;1.45;;;8.70;99.90;;;;;;6204204;23;20324;-85
2022/09/27 03:05:52;;;;;;;;;;;8.70;99.90;;;;;;6218850;22;20466;-85
2022/09/27 03:08:59;;;;;;;4.90;2.42;;;8.70;99.90;;;;;;6218942;23;19919;-85
2022/09/27 03:11:27;;;;;;;2.38;2.10;;;8.70;99.90;;;;;;6244782;23;20020;-86
2022/09/27 03:13:54;;;;;;;3.13;1.95;;;8.60;99.90;;;;;;6218207;23;20020;-85
2022/09/27 03:16:40;;;;;;;2.75;2.55;;;8.70;99.90;;;;;;6222601;23;20012;-83
2022/09/27 03:19:20;;;;;;;1.77;1.67;;;8.70;99.90;;;;;;6243114;23;20016;-82
2022/09/27 03:22:20;;;;;;;3.20;2.30;;;8.70;99.90;;;;;;6224637;23;20027;-82
2022/09/27 03:24:48;;;;;;;2.00;1.90;;;8.70;99.90;;;;;;6193845;23;20020;-82
2022/09/27 03:27:15;;;;;;;2.47;1.77;;;8.80;99.90;;;;;;6245317;23;20344;-82
2022/09/27 03:29:43;;;;;;;5.68;2.70;;;8.70;99.90;;;;;;6193367;22;20012;-82
2022/09/27 03:32:10;;;;;;;2.72;2.53;;;8.70;99.90;;;;;;6218533;23;20055;-82
2022/09/27 03:35:01;;;;;;;2.33;2.13;;;8.70;99.90;;;;;;6167768;23;20032;-82
2022/09/27 03:37:36;;;;;;;2.63;2.45;;;8.70;99.90;;;;;;6218087;22;20451;-82
2022/09/27 03:40:05;;;;;;;3.58;2.50;;;8.80;99.90;;;;;;6218920;23;20040;-82
2022/09/27 03:42:32;;;;;;;4.18;2.20;;;8.70;99.90;;;;;;6223190;23;20012;-82
2022/09/27 03:45:00;;;;;;;5.75;1.73;;;8.80;99.90;;;;;;6219004;23;20035;-82
2022/09/27 03:47:27;;;;;;;3.17;2.90;;;8.70;99.90;;;;;;6218152;23;20035;-82
2022/09/27 03:49:55;;;;;;;3.40;2.88;;;8.70;99.90;;;;;;6226226;23;20443;-82
2022/09/27 03:52:22;;;;;;;4.20;2.10;;;8.60;99.90;;;;;;6218332;23;20020;-81
2022/09/27 03:54:50;;;;;;;2.45;2.25;;;8.60;99.90;;;;;;6218296;23;20016;-82
2022/09/27 03:57:18;;;;;;;3.50;2.35;;;8.60;99.90;;;;;;6228504;23;20012;-82
2022/09/27 03:59:46;;;;;;;2.00;1.85;;;8.60;99.90;;;;;;6218023;23;20027;-82
2022/09/27 04:02:43;;;;;;;3.47;1.75;;;8.60;99.90;;;;;;6204714;23;20027;-81
2022/09/27 04:05:33;;;;;;;2.72;2.50;;;8.60;99.90;;;;;;6228903;22;20024;-82
2022/09/27 04:09:19;;;;;;;2.05;1.90;;;8.70;99.90;;;;;;6196782;23;20024;-81
2022/09/27 04:12:00;;;;;;;2.38;1.80;;;8.70;99.90;;;;;;6204416;23;20455;-81
2022/09/27 04:14:27;;;;;;;2.22;1.77;;;8.70;99.90;;;;;;6224062;23;20027;-82
2022/09/27 04:17:49;;;;;;;1.88;1.70;;;8.60;99.90;;;;;;6226271;22;20035;-88
2022/09/27 04:20:45;;;;;;;4.55;1.50;;;8.60;99.90;;;;;;6185376;23;20468;-87
2022/09/27 04:23:28;;;;;;;3.20;1.38;;;8.70;99.90;;;;;;6193644;23;20347;-88
2022/09/27 04:26:16;;;;;;;3.42;2.30;;;8.60;99.90;;;;;;6208020;22;20031;-89
2022/09/27 04:29:18;;;;;;;2.33;2.13;;;8.60;99.90;;;;;;6219998;23;20023;-89
2022/09/27 04:32:23;;;;;;;3.70;2.65;;;8.60;99.90;;;;;;6158906;23;20352;-89
2022/09/27 04:39:27;;;;;;;2.60;1.60;;;8.60;99.90;;;;;;6188449;22;20451;-88
2022/09/27 04:42:25;;;;;;;2.05;1.95;;;8.60;99.90;;;;;;6223529;23;20013;-89
2022/09/27 04:45:28;;;;;;;1.67;1.58;;;8.60;99.90;;;;;;6232981;23;20008;-92
2022/09/27 04:48:59;;;;;;;3.15;1.85;;;8.60;99.90;;;;;;6171078;23;20470;-89
2022/09/27 05:30:22;;;;;;;2.65;1.77;;;8.60;99.90;;;;;;6147635;23;20029;31
2022/09/27 05:58:05;;;;;;;2.92;2.53;;;8.60;99.90;;;;;;6174237;23;20017;-83
2022/09/27 06:00:39;;;;;;;3.03;2.83;;;8.50;99.90;;;;;;6184556;23;20013;-83
2022/09/27 06:03:26;;;;;;;2.70;2.50;;;8.60;99.90;;;;;;6209471;23;20017;-83
2022/09/27 06:06:14;;;;;;;3.10;2.80;;;8.50;99.90;;;;;;6188080;23;20017;-83
2022/09/27 06:08:48;;;;;;;5.35;3.10;;;8.60;99.90;;;;;;6171415;23;20024;-84
2022/09/27 06:11:18;;;;;;;2.88;1.83;;;8.60;99.90;;;;;;6144274;23;20036;-83
2022/09/27 06:13:49;;;;;;;;;;;8.70;99.90;;;;;;6184500;23;20040;-83
2022/09/27 06:16:17;;;;;;;2.22;1.67;;;8.60;99.90;;;;;;6183677;23;19916;-83
2022/09/27 06:18:45;;;;;;;2.20;1.65;;;8.60;99.90;;;;;;6156669;23;20048;-87
2022/09/27 06:21:51;;;;;;;1.92;1.80;;;8.60;99.90;;;;;;6134857;23;20013;-89
2022/09/27 06:28:52;;;;;;;1.35;1.25;;;8.60;99.90;;;;;;6186635;22;20434;-88
2022/09/27 06:32:25;;;;;;;;;;;;;;;;;;;;;
2022/09/27 07:02:59;;;;;;;1.05;0.93;;;8.70;99.90;;;;;;6216411;23;20019;-91
2022/09/27 07:06:30;;;;;;;2.42;1.00;;;8.80;99.90;;;;;;6229210;23;20030;-91
2022/09/27 07:18:48;;;;;;;1.00;1.00;;;9.00;99.90;;;;;;6135617;23;20029;-90
2022/09/27 07:36:17;;;;;;;0.70;0.70;;;8.90;99.90;;;;;;6066009;23;19916;-85
2022/09/27 07:38:47;;;;;;;1.92;0.73;;;9.00;99.90;;;;;;6158033;23;20021;-84
2022/09/27 07:41:20;;;;;;;1.33;0.90;;;9.00;99.90;;;;;;6129063;23;20024;-84
2022/09/27 07:44:35;;;;;;;0.82;0.82;;;9.00;99.90;;;;;;6156664;23;20021;-89
2022/09/27 07:47:41;;;;;;;0.95;0.80;;;9.00;99.90;;;;;;6048037;23;20035;-87
2022/09/27 07:54:39;;;;;;;2.95;0.90;;;8.90;99.90;;;;;;6104265;23;20025;-89
2022/09/27 08:19:35;;;;;;;;;;;;;;;;;;;;;
2022/09/27 08:23:42;;;;;;;2.35;1.75;;;9.50;99.90;;;;;;6079601;23;20038;-89
2022/09/27 08:26:56;;;;;;;0.65;0.65;;;9.80;99.90;;;;;;6067112;23;20029;-88
2022/09/27 08:30:39;;;;;;;2.05;1.10;;;9.70;99.90;;;;;;6079561;23;20014;-86
2022/09/27 08:33:14;;;;;;;0.80;0.80;;;9.80;99.90;;;;;;6068318;23;20497;-86
2022/09/27 08:35:43;;;;;;;2.05;0.50;;;9.90;99.90;;;;;;6069731;23;20029;-86
2022/09/27 08:38:35;;;;;;;0.93;0.93;;;9.90;99.90;;;;;;6203989;22;20028;-90
2022/09/27 08:41:25;;;;;;;0.88;0.77;;;10.00;99.90;;;;;;6218327;23;20024;-92
2022/09/27 08:44:24;;;;;;;1.30;1.15;;;9.90;99.90;;;;;;6217653;23;20024;-85
2022/09/27 08:47:38;;;;;;;1.02;0.60;;;9.60;99.90;;;;;;6207698;23;20035;-86
2022/09/27 08:50:21;;;;;;;1.95;0.60;;;8.20;99.90;;;;;;6220221;23;20016;-85
2022/09/27 08:53:02;;;;;;;3.03;0.82;;;7.60;99.90;;;;;;6252946;23;20352;-86
2022/09/27 08:55:51;;;;;;;0.50;0.50;;;7.60;99.90;;;;;;6226821;22;20024;-85
2022/09/27 08:58:28;;;;;;;0.77;0.50;;;7.70;99.90;;;;;;6219459;23;20020;-85
2022/09/27 09:01:03;;;;;;;0.77;0.57;;;7.80;99.90;;;;;;6188717;23;20408;-86
2022/09/27 09:03:42;;;;;;;0.90;0.73;;;7.90;99.90;;;;;;6214050;22;20028;-85
2022/09/27 09:06:33;;;;;;;0.50;0.50;;;8.00;99.90;;;;;;6213330;23;20020;-88
2022/09/27 09:09:07;;;;;;;0.43;0.43;;;8.20;99.90;;;;;;6249738;23;20483;-85
2022/09/27 09:15:54;;;;;;;0.63;0.63;;;8.40;99.90;;;;;;6226178;23;20028;-90
2022/09/27 09:18:46;;;;;;;0.60;0.57;;;8.50;99.90;;;;;;6181784;23;20032;-82
2022/09/27 09:22:28;;;;;;;0.70;0.70;;;8.60;99.90;;;;;;6250414;23;20349;-84
2022/09/27 09:25:07;;;;;;;0.70;0.70;;;8.90;99.90;;;;;;6210646;23;20047;-82
2022/09/27 09:27:48;;;;;;;0.50;0.50;;;9.00;99.90;;;;;;6240973;23;20024;-83
2022/09/27 09:30:28;;;;;;;0.85;0.70;;;9.10;99.90;;;;;;6246758;22;20020;-85
2022/09/27 09:33:22;;;;;;;0.40;0.40;;;9.20;99.90;;;;;;6251879;23;20016;-83
2022/09/27 09:36:26;;;;;;;0.75;0.75;;;9.40;99.90;;;;;;6190508;23;20020;-86
2022/09/27 09:39:12;;;;;;;0.50;0.50;;;9.70;99.90;;;;;;6189340;23;20028;-84
2022/09/27 09:42:12;;;;;;;0.60;0.60;;;9.70;99.90;;;;;;6165239;23;20024;-89
2022/09/27 09:44:44;;;;;;;2.38;0.90;;;9.60;99.90;;;;;;6191046;23;20024;-84
2022/09/27 09:47:25;;;;;;;0.50;0.50;;;9.50;99.90;;;;;;6215557;22;20024;-87
2022/09/27 09:49:59;;;;;;;2.83;0.52;;;9.40;99.90;;;;;;6248254;23;20020;-85
2022/09/27 09:57:07;;;;;;;0.60;0.60;;;9.70;99.90;;;;;;6200678;23;20323;-84
2022/09/27 09:59:46;;;;;;;0.60;0.60;;;9.80;99.90;;;;;;6248359;22;20020;-84
2022/09/27 10:02:39;;;;;;;1.23;0.70;;;9.90;99.90;;;;;;6242030;23;20020;-85
2022/09/27 10:05:18;;;;;;;8.68;1.20;;;10.00;99.90;;;;;;6215508;23;20452;-85
2022/09/27 10:07:56;;;;;;;0.90;0.70;;;10.40;99.90;;;;;;6154921;23;20028;-87
2022/09/27 10:10:25;;;;;;;1.00;0.63;;;10.50;99.90;;;;;;6181932;23;20029;-86
2022/09/27 10:13:02;;;;;;;0.60;0.60;;;10.10;99.90;;;;;;6209164;23;20357;-85
2022/09/27 10:15:34;;;;;;;0.50;0.50;;;9.90;99.90;;;;;;6123247;23;20033;-85
2022/09/27 10:18:13;;;;;;;0.85;0.85;;;9.80;99.90;;;;;;6121219;23;20380;-84
2022/09/27 10:24:27;;;;;;;0.43;0.43;;;9.70;99.90;;;;;;6236344;23;20028;-85
2022/09/27 10:27:06;;;;;;;0.68;0.65;;;9.80;99.90;;;;;;6214075;23;20020;-87
2022/09/27 10:29:38;;;;;;;1.23;0.68;;;9.60;99.90;;;;;;6199062;23;20020;-84
2022/09/27 10:32:20;;;;;;;;;;;9.50;99.90;;;;;;6252223;23;20016;-85
2022/09/27 10:34:50;;;;;;;2.38;0.68;;;9.40;99.90;;;;;;6215085;22;19919;-84
2022/09/27 10:37:24;;;;;;;1.00;0.60;;;9.40;99.90;;;;;;6165713;23;20016;-84
2022/09/27 10:40:32;;;;;;;0.93;0.93;;;9.40;99.90;;;;;;6176010;23;20024;-84
2022/09/27 10:43:21;;;;;;;0.70;0.68;;;9.40;99.90;;;;;;6203918;23;20561;-83
2022/09/27 10:46:10;;;;;;;0.55;0.55;;;9.40;99.90;;;;;;6247681;22;20027;-88
2022/09/27 10:49:58;;;;;;;0.50;0.47;;;9.30;99.90;;;;;;6226696;23;20027;-89
2022/09/27 10:52:48;;;;;;;0.77;0.77;;;9.30;99.90;;;;;;6163357;23;20471;-86
2022/09/27 10:55:25;;;;;;;0.60;0.60;;;9.20;99.90;;;;;;6210122;23;20028;-84
2022/09/27 11:02:35;;;;;;;0.60;0.60;;;9.20;99.90;;;;;;6025990;23;20023;-87
2022/09/27 11:05:47;;;;;;;0.40;0.40;;;9.20;99.90;;;;;;6025511;23;20049;-89
2022/09/27 11:09:18;;;;;;;0.70;0.70;;;9.00;99.90;;;;;;6023047;23;20121;-88
2022/09/27 11:12:12;;;;;;;1.38;0.60;;;8.90;99.90;;;;;;6056125;23;20029;-86
2022/09/27 11:15:02;;;;;;;0.47;0.47;;;8.90;99.90;;;;;;6131934;23;20021;-87
2022/09/27 11:17:35;;;;;;;1.17;1.08;;;9.00;99.90;;;;;;6113563;23;20021;-85
2022/09/27 11:20:30;;;;;;;0.80;0.60;;;9.10;99.90;;;;;;6153168;23;20471;-86
2022/09/27 11:23:41;;;;;;;0.47;0.47;;;9.20;99.90;;;;;;6126363;23;20488;-85
2022/09/27 11:26:41;;;;;;;1.52;0.68;;;9.20;99.90;;;;;;6142088;23;20018;-85
2022/09/27 11:29:39;;;;;;;0.80;0.80;;;9.30;99.90;;;;;;6070306;23;20561;-86
2022/09/27 11:32:57;;;;;;;0.80;0.80;;;9.50;99.90;;;;;;6108887;23;20029;-83
2022/09/27 11:35:37;;;;;;;1.10;1.00;;;9.40;99.90;;;;;;6130088;23;20029;-86
2022/09/27 11:38:23;;;;;;;0.80;0.80;;;9.70;99.90;;;;;;6129461;23;20036;-82
2022/09/27 11:41:33;;;;;;;1.23;0.93;;;9.90;99.90;;;;;;6153528;23;20021;-85
2022/09/27 11:44:30;;;;;;;0.65;0.60;;;9.80;99.90;;;;;;6176288;23;20421;-84
2022/09/27 11:47:26;;;;;;;0.88;0.88;;;10.00;99.90;;;;;;6157366;23;20032;-84
2022/09/27 11:50:03;;;;;;;0.95;0.90;;;10.00;99.90;;;;;;6129208;23;20017;-84
2022/09/27 11:52:49;;;;;;;0.80;0.70;;;9.80;99.90;;;;;;6190375;23;20013;-86
2022/09/27 11:55:31;;;;;;;1.75;1.10;;;10.00;99.90;;;;;;6156518;23;20345;-86
2022/09/27 11:58:34;;;;;;;;;;;;;;;;;;;;;
2022/09/27 12:01:48;;;;;;;0.68;0.68;;;10.80;99.90;;;;;;6130215;23;20025;-84
2022/09/27 12:04:42;;;;;;;0.57;0.55;;;11.20;99.90;;;;;;6151760;23;20045;-90
2022/09/27 12:07:23;;;;;;;0.55;0.55;;;11.30;99.90;;;;;;6159444;23;20017;-88
2022/09/27 12:09:59;;;;;;;1.63;0.60;;;10.70;99.90;;;;;;6162882;23;20460;-81
2022/09/27 12:12:34;;;;;;;1.20;0.63;;;10.40;99.90;;;;;;6163475;23;20021;-83
2022/09/27 12:15:32;;;;;;;0.75;0.70;;;10.30;99.90;;;;;;6152325;23;20029;-85
2022/09/27 12:18:28;;;;;;;2.28;0.50;;;10.30;99.90;;;;;;6107965;23;20036;-86
2022/09/27 12:21:01;;;;;;;0.63;0.63;;;10.90;99.90;;;;;;6163870;23;20013;-84
2022/09/27 12:24:02;;;;;;;0.40;0.40;;;11.00;99.90;;;;;;6147932;23;20025;-84
2022/09/27 12:26:56;;;;;;;1.27;0.50;;;11.30;99.90;;;;;;6116541;23;20025;-85
2022/09/27 12:30:11;;;;;;;0.50;0.50;;;11.20;99.90;;;;;;6129823;23;20032;-89
2022/09/27 12:33:01;;;;;;;0.70;0.70;;;11.20;99.90;;;;;;6160183;23;20028;-84
2022/09/27 12:35:40;;;;;;;0.50;0.50;;;11.20;99.90;;;;;;6129041;23;20025;-88
2022/09/27 12:38:24;;;;;;;2.20;0.52;;;10.90;99.90;;;;;;6179148;23;20025;-89
2022/09/27 12:41:04;;;;;;;0.55;0.50;;;10.70;99.90;;;;;;6189160;23;20013;-88
2022/09/27 12:43:50;;;;;;;0.60;0.60;;;10.60;99.90;;;;;;6178408;23;20033;-87
2022/09/27 12:46:46;;;;;;;0.98;0.63;;;10.50;99.90;;;;;;6153105;23;20068;-88
2022/09/27 12:49:30;;;;;;;0.40;0.40;;;10.70;99.90;;;;;;6213923;23;20024;-85
2022/09/27 12:52:11;;;;;;;0.55;0.55;;;10.90;99.90;;;;;;6211189;23;20029;-83
2022/09/27 12:55:07;;;;;;;0.40;0.40;;;10.50;99.90;;;;;;6184407;23;20036;-88
2022/09/27 12:58:12;;;;;;;0.90;0.90;;;10.20;99.90;;;;;;6178762;23;20025;-83
2022/09/27 13:01:14;;;;;;;5.88;1.92;;;9.60;99.90;;;;;;6190095;23;20021;-85
2022/09/27 13:04:01;;;;;;;0.60;0.60;;;9.10;99.90;;;;;;6182412;23;20036;-87
2022/09/27 13:06:50;;;;;;;0.63;0.60;;;8.70;99.90;;;;;;6155292;23;20028;-89
2022/09/27 13:09:42;;;;;;;0.70;0.70;;;8.70;99.90;;;;;;6215532;23;20021;-88
2022/09/27 13:12:19;;;;;;;0.80;0.80;;;8.80;99.90;;;;;;6210961;23;20044;-87
2022/09/27 13:15:03;;;;;;;0.63;0.50;;;8.90;99.90;;;;;;6155145;23;20025;-87
2022/09/27 13:17:39;;;;;;;1.23;1.13;;;9.20;99.90;;;;;;6189321;23;20017;-87
2022/09/27 13:20:34;;;;;;;2.85;0.70;;;9.20;99.90;;;;;;6166848;23;20013;-87
2022/09/27 13:23:17;;;;;;;0.70;0.70;;;9.10;99.90;;;;;;6133862;23;20487;-85
2022/09/27 13:25:51;;;;;;;0.73;0.73;;;9.10;99.90;;;;;;6165382;22;20023;-85
2022/09/27 13:28:56;;;;;;;2.15;1.02;;;9.00;99.90;;;;;;6188367;23;20020;-88
2022/09/27 13:31:53;;;;;;;0.88;0.88;;;9.20;99.90;;;;;;6216350;23;20035;-87
2022/09/27 13:34:42;;;;;;;4.25;1.00;;;9.40;99.90;;;;;;6215786;23;20470;-88
2022/09/27 13:37:45;;;;;;;0.68;0.60;;;9.40;99.90;;;;;;6191341;23;20020;-87
2022/09/27 13:40:26;;;;;;;0.73;0.73;;;9.50;99.90;;;;;;6224116;23;20035;-89
2022/09/27 13:43:46;;;;;;;1.15;1.05;;;9.60;99.90;;;;;;6189001;23;20473;-87
2022/09/27 13:46:35;;;;;;;2.87;1.33;;;10.20;99.90;;;;;;6170525;23;20027;-86
2022/09/27 13:53:08;;;;;;;0.60;0.60;;;10.70;99.90;;;;;;6187863;23;20032;-90
2022/09/27 13:56:56;;;;;;;1.02;1.00;;;10.70;99.90;;;;;;6209058;23;20019;-87
2022/09/27 13:59:45;;;;;;;0.52;0.52;;;10.60;99.90;;;;;;6219557;23;20748;-89
2022/09/27 14:13:14;;;;;;;1.38;0.80;;;10.50;99.90;;;;;;6070737;23;20045;-91
2022/09/27 14:16:40;;;;;;;1.20;1.13;;;10.50;99.90;;;;;;6040286;23;20044;-91
2022/09/27 14:19:45;;;;;;;0.73;0.73;;;10.20;99.90;;;;;;6105457;23;20018;-90
2022/09/27 14:28:44;;;;;;;0.80;0.80;;;9.90;99.90;;;;;;6212639;23;20028;-89
2022/09/27 14:32:21;;;;;;;1.30;0.80;;;9.50;99.90;;;;;;6119632;23;20036;-90
2022/09/27 14:43:31;;;;;;;;;;;9.30;99.90;;;;;;6029656;23;20056;-90
2022/09/27 14:46:27;;;;;;;0.50;0.50;;;9.30;99.90;;;;;;6037108;23;19933;-89
2022/09/27 14:49:23;;;;;;;0.50;0.50;;;9.40;99.90;;;;;;6040348;23;20025;-89
2022/09/27 14:56:36;;;;;;;0.68;0.68;;;9.50;99.90;;;;;;6046829;23;20034;-88
2022/09/27 14:59:29;;;;;;;1.25;1.23;;;9.60;99.90;;;;;;6088832;23;20033;-86
2022/09/27 15:02:09;;;;;;;4.35;1.40;;;10.00;99.90;;;;;;6041450;23;20029;-88
2022/09/27 15:04:36;;;;;;;0.93;0.93;;;10.20;99.90;;;;;;6093957;23;20057;-90
2022/09/27 15:07:08;;;;;;;3.42;0.70;;;10.30;99.90;;;;;;6088142;23;20573;-87
2022/09/27 15:10:20;;;;;;;0.60;0.60;;;10.50;99.90;;;;;;6085173;23;20342;-87
2022/09/27 15:13:08;;;;;;;0.68;0.68;;;9.90;99.90;;;;;;6064715;23;20066;-88
2022/09/27 15:15:43;;;;;;;0.52;0.52;;;9.50;99.90;;;;;;6130684;23;20033;-88
2022/09/27 15:18:45;;;;;;;0.65;0.65;;;9.30;99.90;;;;;;6076654;23;20339;-89
2022/09/27 15:21:52;;;;;;;1.05;0.70;;;9.30;99.90;;;;;;6095266;23;20838;-87
2022/09/27 15:25:31;;;;;;;1.45;0.90;;;9.30;99.90;;;;;;6103509;23;20036;-89
2022/09/27 15:28:04;;;;;;;0.98;0.90;;;9.20;99.90;;;;;;6041791;23;20030;-87
2022/09/27 15:31:16;;;;;;;0.88;0.80;;;9.20;99.90;;;;;;6119432;23;20044;-86
2022/09/27 15:33:53;;;;;;;0.63;0.63;;;9.30;99.90;;;;;;6153379;23;20020;-82
2022/09/27 15:37:02;;;;;;;0.70;0.70;;;9.20;99.90;;;;;;6164241;23;20017;-82
2022/09/27 15:39:33;;;;;;;0.80;0.80;;;9.30;99.90;;;;;;6150704;23;20024;-81
2022/09/27 15:42:06;;;;;;;0.63;0.63;;;9.30;99.90;;;;;;6190343;23;20024;-87
2022/09/27 15:44:52;;;;;;;0.77;0.77;;;9.30;99.90;;;;;;6164156;23;20474;-84
2022/09/27 15:47:33;;;;;;;0.70;0.70;;;9.30;99.90;;;;;;6182476;23;20029;-81
2022/09/27 15:50:15;;;;;;;1.50;1.40;;;9.30;99.90;;;;;;6104855;23;20017;-80
2022/09/27 15:52:54;;;;;;;2.92;0.65;;;9.30;99.90;;;;;;6163141;23;20017;-82
2022/09/27 15:55:27;;;;;;;0.90;0.88;;;9.20;99.90;;;;;;6179265;23;20044;-80
2022/09/27 15:58:02;;;;;;;0.80;0.73;;;9.30;99.90;;;;;;6175809;23;20712;-83
2022/09/27 16:00:30;;;;;;;0.63;0.63;;;9.50;99.90;;;;;;6129664;23;20027;-82
2022/09/27 16:02:58;;;;;;;1.08;0.80;;;9.70;99.90;;;;;;6129058;23;20707;-82
2022/09/27 16:05:29;;;;;;;1.30;1.25;;;10.00;99.90;;;;;;6153573;23;20440;-82
2022/09/27 16:07:57;;;;;;;1.05;0.95;;;10.20;99.90;;;;;;6126306;23;20025;-83
2022/09/27 16:10:31;;;;;;;2.03;0.73;;;10.10;99.90;;;;;;6185564;23;20040;-82
2022/09/27 16:12:58;;;;;;;0.80;0.80;;;9.90;99.90;;;;;;6103082;23;20039;-82
2022/09/27 16:15:26;;;;;;;0.85;0.85;;;9.70;99.90;;;;;;6153748;23;20443;-82
2022/09/27 16:17:57;;;;;;;0.93;0.93;;;9.60;99.90;;;;;;6124537;23;20028;-85
2022/09/27 16:20:26;;;;;;;0.90;0.90;;;9.60;99.90;;;;;;6139603;23;20039;-87
2022/09/27 16:22:54;;;;;;;0.85;0.85;;;9.30;99.90;;;;;;6153136;23;20029;-82
2022/09/27 16:25:22;;;;;;;0.90;0.90;;;9.30;99.90;;;;;;6154115;23;20021;-81
2022/09/27 16:27:51;;;;;;;0.88;0.80;;;9.30;99.90;;;;;;6154568;23;20033;-83
2022/09/27 16:30:19;;;;;;;0.80;0.80;;;9.20;99.90;;;;;;6130926;23;20028;-83
2022/09/27 16:32:47;;;;;;;2.15;0.85;;;9.20;99.90;;;;;;6190386;23;20021;-83
2022/09/27 16:35:16;;;;;;;0.60;0.60;;;9.20;99.90;;;;;;6182806;23;20021;-80
2022/09/27 16:37:44;;;;;;;0.90;0.90;;;9.30;99.90;;;;;;6189446;23;20017;-84
2022/09/27 16:40:14;;;;;;;0.50;0.50;;;9.30;99.90;;;;;;6192589;23;20017;-85
2022/09/27 16:42:44;;;;;;;1.25;1.23;;;9.30;99.90;;;;;;6159723;23;20032;-80
2022/09/27 16:45:20;;;;;;;0.80;0.80;;;9.30;99.90;;;;;;6192301;23;20017;-86
2022/09/27 16:47:48;;;;;;;1.17;0.70;;;9.30;99.90;;;;;;6155562;23;20029;-84
2022/09/27 16:57:18;;;;;;;0.60;0.60;;;9.30;99.90;;;;;;6146128;23;20017;-88
2022/09/27 16:59:56;;;;;;;2.25;2.15;;;9.10;99.90;;;;;;6171707;23;20028;-87
2022/09/27 17:02:23;;;;;;;0.68;0.68;;;9.20;99.90;;;;;;6160232;23;20025;-85
2022/09/27 17:04:54;;;;;;;1.48;0.73;;;9.10;99.90;;;;;;6130972;23;20017;-87
2022/09/27 17:07:24;;;;;;;1.05;0.68;;;9.20;99.90;;;;;;6157211;23;20029;-85
2022/09/27 17:09:51;;;;;;;0.70;0.70;;;9.20;99.90;;;;;;6189580;23;20073;-86
2022/09/27 17:12:21;;;;;;;1.20;0.85;;;9.10;99.90;;;;;;6155725;23;20020;-86
2022/09/27 17:15:32;;;;;;;0.70;0.70;;;9.10;99.90;;;;;;6179826;23;20021;-85
2022/09/27 17:18:05;;;;;;;0.50;0.50;;;9.00;99.90;;;;;;6182181;23;20031;-87
2022/09/27 17:20:46;;;;;;;0.95;0.95;;;9.00;99.90;;;;;;6223118;23;20357;-91
2022/09/27 17:29:11;;;;;;;1.65;0.80;;;9.00;99.90;;;;;;6201087;23;20017;-88
2022/09/27 17:32:14;;;;;;;3.05;0.98;;;9.10;99.90;;;;;;6145325;23;20029;-85
2022/09/27 17:34:44;;;;;;;0.65;0.60;;;9.00;99.90;;;;;;6216213;23;20812;-84
2022/09/27 17:37:21;;;;;;;1.00;1.00;;;9.00;99.90;;;;;;6222299;23;20013;-90
2022/09/27 17:39:56;;;;;;;0.70;0.70;;;8.90;99.90;;;;;;6184676;23;20025;-88
2022/09/27 17:42:33;;;;;;;0.70;0.70;;;8.90;99.90;;;;;;6213745;23;20025;-89
2022/09/27 17:45:15;;;;;;;0.70;0.70;;;8.80;99.90;;;;;;6166627;23;20017;-91
2022/09/27 17:55:49;;;;;;;0.80;0.80;;;8.50;99.90;;;;;;6161950;23;20024;-92
2022/09/27 17:58:43;;;;;;;1.10;1.00;;;8.40;99.90;;;;;;6201814;23;20035;-85
2022/09/27 18:01:13;;;;;;;0.63;0.63;;;8.40;99.90;;;;;;6171032;23;20020;-86
2022/09/27 18:04:23;;;;;;;1.25;1.25;;;8.30;99.90;;;;;;6209492;23;20357;-86
2022/09/27 18:07:41;;;;;;;0.70;0.70;;;8.20;99.90;;;;;;6183901;23;20025;-85
2022/09/27 18:11:15;;;;;;;0.45;0.45;;;8.10;99.90;;;;;;6214748;23;20020;-89
2022/09/27 18:15:21;;;;;;;0.77;0.77;;;8.10;99.90;;;;;;6122312;23;20037;-89
2022/09/27 18:18:27;;;;;;;0.75;0.65;;;8.10;99.90;;;;;;6104627;23;20554;-90
2022/09/27 18:21:49;;;;;;;0.60;0.60;;;8.10;99.90;;;;;;6221216;23;20013;-89
2022/09/27 18:29:05;;;;;;;4.53;0.73;;;8.10;99.90;;;;;;6074734;23;20026;-89